sensor_id;sensor_type;location;lat;lon;timestamp;pressure;altitude;pressure_sealevel;temperature;humidity
45403;BME280;47427;51.976;5.326;2023-05-22T00:03:13;101483.72;;;16.49;100.00
45403;BME280;47427;51.976;5.326;2023-05-22T00:06:35;101480.88;;;16.35;100.00
45403;BME280;47427;51.976;5.326;2023-05-22T00:09:58;101472.84;;;16.26;100.00
45403;BME280;47427;51.976;5.326;2023-05-22T00:13:20;101471.00;;;16.22;100.00
45403;BME280;47427;51.976;5.326;2023-05-22T00:16:42;101469.31;;;16.25;100.00
45403;BME280;47427;51.976;5.326;2023-05-22T00:20:06;101455.84;;;16.09;100.00
45403;BME280;47427;51.976;5.326;2023-05-22T00:23:32;101452.25;;;16.03;100.00
45403;BME280;47427;51.976;5.326;2023-05-22T00:26:53;101444.28;;;16.02;100.00
45403;BME280;47427;51.976;5.326;2023-05-22T00:30:16;101447.78;;;15.99;100.00
45403;BME280;47427;51.976;5.326;2023-05-22T00:33:37;101448.72;;;16.04;100.00
45403;BME280;47427;51.976;5.326;2023-05-22T00:37:00;101442.50;;;16.01;100.00
45403;BME280;47427;51.976;5.326;2023-05-22T00:40:23;101433.59;;;15.93;100.00
45403;BME280;47427;51.976;5.326;2023-05-22T00:43:44;101448.53;;;15.91;100.00
45403;BME280;47427;51.976;5.326;2023-05-22T00:47:07;101436.22;;;15.93;100.00
45403;BME280;47427;51.976;5.326;2023-05-22T00:50:30;101452.13;;;15.94;100.00
45403;BME280;47427;51.976;5.326;2023-05-22T00:53:52;101451.19;;;15.91;100.00
45403;BME280;47427;51.976;5.326;2023-05-22T00:57:17;101459.94;;;15.87;100.00
45403;BME280;47427;51.976;5.326;2023-05-22T01:00:58;101469.63;;;15.85;100.00
45403;BME280;47427;51.976;5.326;2023-05-22T01:04:20;101471.38;;;15.82;100.00
45403;BME280;47427;51.976;5.326;2023-05-22T01:07:44;101468.69;;;15.81;100.00
45403;BME280;47427;51.976;5.326;2023-05-22T01:11:20;101468.69;;;15.81;100.00
45403;BME280;47427;51.976;5.326;2023-05-22T01:15:23;101466.09;;;15.82;100.00
45403;BME280;47427;51.976;5.326;2023-05-22T01:19:10;101463.34;;;15.78;100.00
45403;BME280;47427;51.976;5.326;2023-05-22T01:27:13;101461.16;;;15.51;100.00
45403;BME280;47427;51.976;5.326;2023-05-22T01:34:21;101453.81;;;15.33;100.00
45403;BME280;47427;51.976;5.326;2023-05-22T01:37:44;101443.09;;;15.25;100.00
45403;BME280;47427;51.976;5.326;2023-05-22T01:41:08;101445.63;;;15.19;100.00
45403;BME280;47427;51.976;5.326;2023-05-22T01:44:31;101457.88;;;15.12;100.00
45403;BME280;47427;51.976;5.326;2023-05-22T01:47:53;101441.88;;;15.06;100.00
45403;BME280;47427;51.976;5.326;2023-05-22T01:55:11;101434.66;;;14.94;100.00
45403;BME280;47427;51.976;5.326;2023-05-22T01:58:49;101427.47;;;14.87;100.00
45403;BME280;47427;51.976;5.326;2023-05-22T02:02:16;101421.28;;;14.85;100.00
45403;BME280;47427;51.976;5.326;2023-05-22T02:05:39;101420.31;;;14.80;100.00
45403;BME280;47427;51.976;5.326;2023-05-22T02:09:01;101419.28;;;14.72;100.00
45403;BME280;47427;51.976;5.326;2023-05-22T02:12:25;101410.34;;;14.64;100.00
45403;BME280;47427;51.976;5.326;2023-05-22T02:15:49;101421.59;;;14.55;100.00
45403;BME280;47427;51.976;5.326;2023-05-22T02:19:13;101417.94;;;14.48;100.00
45403;BME280;47427;51.976;5.326;2023-05-22T02:22:36;101416.13;;;14.46;100.00
45403;BME280;47427;51.976;5.326;2023-05-22T02:25:59;101419.50;;;14.40;100.00
45403;BME280;47427;51.976;5.326;2023-05-22T02:29:21;101412.41;;;14.36;100.00
45403;BME280;47427;51.976;5.326;2023-05-22T02:32:43;101409.63;;;14.30;100.00
45403;BME280;47427;51.976;5.326;2023-05-22T02:36:07;101407.81;;;14.26;100.00
45403;BME280;47427;51.976;5.326;2023-05-22T02:39:32;101403.16;;;14.14;100.00
45403;BME280;47427;51.976;5.326;2023-05-22T02:42:55;101398.72;;;14.12;100.00
45403;BME280;47427;51.976;5.326;2023-05-22T02:46:17;101407.59;;;14.17;100.00
45403;BME280;47427;51.976;5.326;2023-05-22T02:49:39;101403.66;;;14.39;100.00
45403;BME280;47427;51.976;5.326;2023-05-22T02:53:21;101402.38;;;14.62;100.00
45403;BME280;47427;51.976;5.326;2023-05-22T02:56:44;101393.75;;;14.72;100.00
45403;BME280;47427;51.976;5.326;2023-05-22T03:00:07;101395.81;;;14.89;100.00
45403;BME280;47427;51.976;5.326;2023-05-22T03:03:32;101391.66;;;15.05;100.00
45403;BME280;47427;51.976;5.326;2023-05-22T03:06:54;101391.75;;;15.11;100.00
45403;BME280;47427;51.976;5.326;2023-05-22T03:10:16;101389.94;;;15.07;100.00
45403;BME280;47427;51.976;5.326;2023-05-22T03:13:37;101395.41;;;15.17;100.00
45403;BME280;47427;51.976;5.326;2023-05-22T03:17:00;101393.69;;;15.20;100.00
45403;BME280;47427;51.976;5.326;2023-05-22T03:20:23;101390.06;;;15.14;100.00
45403;BME280;47427;51.976;5.326;2023-05-22T03:23:45;101399.88;;;15.23;100.00
45403;BME280;47427;51.976;5.326;2023-05-22T03:27:08;101397.25;;;15.23;100.00
45403;BME280;47427;51.976;5.326;2023-05-22T03:30:34;101397.25;;;15.23;100.00
45403;BME280;47427;51.976;5.326;2023-05-22T03:34:06;101390.06;;;15.14;100.00
45403;BME280;47427;51.976;5.326;2023-05-22T03:37:29;101386.66;;;15.23;100.00
45403;BME280;47427;51.976;5.326;2023-05-22T03:40:52;101393.72;;;15.23;100.00
45403;BME280;47427;51.976;5.326;2023-05-22T03:44:15;101390.34;;;15.33;100.00
45403;BME280;47427;51.976;5.326;2023-05-22T03:47:38;101388.63;;;15.35;100.00
45403;BME280;47427;51.976;5.326;2023-05-22T03:51:00;101393.88;;;15.33;100.00
45403;BME280;47427;51.976;5.326;2023-05-22T03:54:22;101388.50;;;15.27;100.00
45403;BME280;47427;51.976;5.326;2023-05-22T03:57:45;101388.31;;;15.15;100.00
45403;BME280;47427;51.976;5.326;2023-05-22T04:01:06;101387.22;;;15.04;100.00
45403;BME280;47427;51.976;5.326;2023-05-22T04:04:32;101391.50;;;14.95;100.00
45403;BME280;47427;51.976;5.326;2023-05-22T04:07:55;101383.50;;;14.89;100.00
45403;BME280;47427;51.976;5.326;2023-05-22T04:11:16;101388.59;;;14.80;100.00
45403;BME280;47427;51.976;5.326;2023-05-22T04:14:40;101394.53;;;14.68;100.00
45403;BME280;47427;51.976;5.326;2023-05-22T04:18:02;101385.50;;;14.56;100.00
45403;BME280;47427;51.976;5.326;2023-05-22T04:21:24;101395.00;;;14.46;100.00
45403;BME280;47427;51.976;5.326;2023-05-22T04:24:47;101390.38;;;14.34;100.00
45403;BME280;47427;51.976;5.326;2023-05-22T04:28:09;101400.00;;;14.32;100.00
45403;BME280;47427;51.976;5.326;2023-05-22T04:31:32;101392.81;;;14.23;100.00
45403;BME280;47427;51.976;5.326;2023-05-22T04:34:54;101406.94;;;14.27;100.00
45403;BME280;47427;51.976;5.326;2023-05-22T04:38:18;101407.91;;;14.30;100.00
45403;BME280;47427;51.976;5.326;2023-05-22T04:41:41;101405.22;;;14.29;100.00
45403;BME280;47427;51.976;5.326;2023-05-22T04:45:07;101408.66;;;14.25;100.00
45403;BME280;47427;51.976;5.326;2023-05-22T04:48:33;101413.13;;;14.29;100.00
45403;BME280;47427;51.976;5.326;2023-05-22T04:51:58;101412.31;;;14.31;100.00
45403;BME280;47427;51.976;5.326;2023-05-22T04:55:23;101430.94;;;14.39;100.00
45403;BME280;47427;51.976;5.326;2023-05-22T04:58:46;101437.31;;;14.49;100.00
45403;BME280;47427;51.976;5.326;2023-05-22T05:02:11;101449.94;;;14.64;100.00
45403;BME280;47427;51.976;5.326;2023-05-22T05:05:33;101452.03;;;14.82;100.00
45403;BME280;47427;51.976;5.326;2023-05-22T05:08:56;101448.66;;;14.89;100.00
45403;BME280;47427;51.976;5.326;2023-05-22T05:12:18;101454.78;;;14.88;100.00
45403;BME280;47427;51.976;5.326;2023-05-22T05:15:41;101454.84;;;14.91;100.00
45403;BME280;47427;51.976;5.326;2023-05-22T05:19:04;101455.44;;;15.26;100.00
45403;BME280;47427;51.976;5.326;2023-05-22T05:22:26;101445.28;;;15.51;100.00
45403;BME280;47427;51.976;5.326;2023-05-22T05:25:49;101457.22;;;15.82;100.00
45403;BME280;47427;51.976;5.326;2023-05-22T05:29:12;101455.56;;;15.89;100.00
45403;BME280;47427;51.976;5.326;2023-05-22T05:32:43;101461.00;;;15.98;100.00
45403;BME280;47427;51.976;5.326;2023-05-22T05:36:24;101451.50;;;16.15;100.00
45403;BME280;47427;51.976;5.326;2023-05-22T05:39:46;101452.69;;;16.40;100.00
45403;BME280;47427;51.976;5.326;2023-05-22T05:43:10;101444.75;;;16.39;100.00
45403;BME280;47427;51.976;5.326;2023-05-22T05:46:33;101440.44;;;16.47;100.00
45403;BME280;47427;51.976;5.326;2023-05-22T05:49:56;101436.31;;;16.74;100.00
45403;BME280;47427;51.976;5.326;2023-05-22T05:53:22;101437.34;;;16.85;100.00
45403;BME280;47427;51.976;5.326;2023-05-22T05:56:50;101430.34;;;16.93;100.00
45403;BME280;47427;51.976;5.326;2023-05-22T06:00:13;101428.69;;;17.06;100.00
45403;BME280;47427;51.976;5.326;2023-05-22T06:03:37;101430.53;;;17.16;100.00
45403;BME280;47427;51.976;5.326;2023-05-22T06:07:07;101438.63;;;17.30;100.00
45403;BME280;47427;51.976;5.326;2023-05-22T06:10:33;101433.38;;;17.39;100.00
45403;BME280;47427;51.976;5.326;2023-05-22T06:14:05;101439.63;;;17.49;100.00
45403;BME280;47427;51.976;5.326;2023-05-22T06:17:28;101449.53;;;17.73;100.00
45403;BME280;47427;51.976;5.326;2023-05-22T06:20:51;101439.94;;;17.89;100.00
45403;BME280;47427;51.976;5.326;2023-05-22T06:24:14;101438.16;;;17.88;100.00
45403;BME280;47427;51.976;5.326;2023-05-22T06:27:38;101447.03;;;17.91;100.00
45403;BME280;47427;51.976;5.326;2023-05-22T06:31:00;101455.13;;;18.13;100.00
45403;BME280;47427;51.976;5.326;2023-05-22T06:34:24;101459.59;;;18.23;100.00
45403;BME280;47427;51.976;5.326;2023-05-22T06:37:47;101460.56;;;18.50;100.00
45403;BME280;47427;51.976;5.326;2023-05-22T06:41:09;101470.38;;;18.69;100.00
45403;BME280;47427;51.976;5.326;2023-05-22T06:44:31;101458.91;;;18.78;100.00
45403;BME280;47427;51.976;5.326;2023-05-22T06:47:53;101461.56;;;18.96;100.00
45403;BME280;47427;51.976;5.326;2023-05-22T06:51:17;101467.81;;;19.15;100.00
45403;BME280;47427;51.976;5.326;2023-05-22T06:54:42;101468.72;;;19.20;100.00
45403;BME280;47427;51.976;5.326;2023-05-22T06:58:09;101458.09;;;19.30;100.00
45403;BME280;47427;51.976;5.326;2023-05-22T07:01:32;101452.72;;;19.34;100.00
45403;BME280;47427;51.976;5.326;2023-05-22T07:05:00;101462.50;;;19.58;100.00
45403;BME280;47427;51.976;5.326;2023-05-22T07:08:27;101460.72;;;19.76;100.00
45403;BME280;47427;51.976;5.326;2023-05-22T07:11:49;101466.94;;;19.73;100.00
45403;BME280;47427;51.976;5.326;2023-05-22T07:15:11;101479.31;;;19.99;100.00
45403;BME280;47427;51.976;5.326;2023-05-22T07:18:41;101475.63;;;20.41;100.00
45403;BME280;47427;51.976;5.326;2023-05-22T07:22:04;101480.00;;;20.50;100.00
45403;BME280;47427;51.976;5.326;2023-05-22T07:25:28;101472.84;;;20.67;100.00
45403;BME280;47427;51.976;5.326;2023-05-22T07:28:51;101480.69;;;20.96;100.00
45403;BME280;47427;51.976;5.326;2023-05-22T07:32:14;101485.19;;;21.98;99.08
45403;BME280;47427;51.976;5.326;2023-05-22T07:35:38;101485.06;;;23.91;89.41
45403;BME280;47427;51.976;5.326;2023-05-22T07:39:01;101489.25;;;24.92;82.12
45403;BME280;47427;51.976;5.326;2023-05-22T07:42:23;101489.41;;;25.59;78.71
45403;BME280;47427;51.976;5.326;2023-05-22T07:45:50;101506.91;;;26.09;60.55
45403;BME280;47427;51.976;5.326;2023-05-22T07:49:17;101498.00;;;26.70;58.84
45403;BME280;47427;51.976;5.326;2023-05-22T07:52:40;101513.81;;;28.15;56.26
45403;BME280;47427;51.976;5.326;2023-05-22T07:56:03;101544.28;;;28.44;51.58
45403;BME280;47427;51.976;5.326;2023-05-22T07:59:26;101537.00;;;28.93;52.55
45403;BME280;47427;51.976;5.326;2023-05-22T08:02:52;101551.84;;;29.50;49.49
45403;BME280;47427;51.976;5.326;2023-05-22T08:06:15;101546.31;;;29.96;49.27
45403;BME280;47427;51.976;5.326;2023-05-22T08:09:39;101581.78;;;30.51;45.74
45403;BME280;47427;51.976;5.326;2023-05-22T08:13:01;101588.59;;;30.60;44.98
45403;BME280;47427;51.976;5.326;2023-05-22T08:16:27;101599.75;;;30.73;44.88
45403;BME280;47427;51.976;5.326;2023-05-22T08:19:51;101588.78;;;31.33;44.89
45403;BME280;47427;51.976;5.326;2023-05-22T08:23:12;101614.59;;;31.78;42.53
45403;BME280;47427;51.976;5.326;2023-05-22T08:26:35;101615.81;;;31.89;42.14
45403;BME280;47427;51.976;5.326;2023-05-22T08:29:57;101634.16;;;33.38;40.86
45403;BME280;47427;51.976;5.326;2023-05-22T08:33:20;101651.22;;;34.03;38.63
45403;BME280;47427;51.976;5.326;2023-05-22T08:36:43;101667.53;;;35.07;36.92
45403;BME280;47427;51.976;5.326;2023-05-22T08:40:06;101698.09;;;35.55;34.31
45403;BME280;47427;51.976;5.326;2023-05-22T08:43:32;101694.72;;;35.93;33.98
45403;BME280;47427;51.976;5.326;2023-05-22T08:46:55;101684.81;;;36.05;33.57
45403;BME280;47427;51.976;5.326;2023-05-22T08:50:20;101707.56;;;36.45;32.61
45403;BME280;47427;51.976;5.326;2023-05-22T08:53:43;101703.94;;;37.10;32.04
45403;BME280;47427;51.976;5.326;2023-05-22T08:57:06;101727.63;;;36.71;31.26
45403;BME280;47427;51.976;5.326;2023-05-22T09:00:29;101696.88;;;36.55;31.89
45403;BME280;47427;51.976;5.326;2023-05-22T09:03:52;101694.84;;;37.22;31.70
45403;BME280;47427;51.976;5.326;2023-05-22T09:07:15;101722.13;;;38.22;30.71
45403;BME280;47427;51.976;5.326;2023-05-22T09:10:38;101740.25;;;38.71;29.00
45403;BME280;47427;51.976;5.326;2023-05-22T09:14:08;101729.78;;;38.41;29.39
45403;BME280;47427;51.976;5.326;2023-05-22T09:17:29;101714.06;;;38.67;29.18
45403;BME280;47427;51.976;5.326;2023-05-22T09:20:52;101749.88;;;38.88;28.17
45403;BME280;47427;51.976;5.326;2023-05-22T09:24:14;101721.59;;;39.55;28.58
45403;BME280;47427;51.976;5.326;2023-05-22T09:27:36;101739.50;;;40.04;27.46
45403;BME280;47427;51.976;5.326;2023-05-22T09:30:59;101743.88;;;40.39;27.47
45403;BME280;47427;51.976;5.326;2023-05-22T09:34:28;101752.28;;;41.00;26.09
45403;BME280;47427;51.976;5.326;2023-05-22T09:37:53;101735.44;;;40.51;26.82
45403;BME280;47427;51.976;5.326;2023-05-22T09:42:00;101745.94;;;40.79;26.61
45403;BME280;47427;51.976;5.326;2023-05-22T09:45:21;101756.94;;;42.11;25.07
45403;BME280;47427;51.976;5.326;2023-05-22T09:48:51;101765.44;;;40.97;25.67
45403;BME280;47427;51.976;5.326;2023-05-22T09:52:13;101760.72;;;41.70;24.84
45403;BME280;47427;51.976;5.326;2023-05-22T09:55:37;101763.00;;;42.05;24.37
45403;BME280;47427;51.976;5.326;2023-05-22T09:59:02;101765.59;;;42.84;24.59
45403;BME280;47427;51.976;5.326;2023-05-22T10:02:26;101728.25;;;41.02;26.81
45403;BME280;47427;51.976;5.326;2023-05-22T10:05:51;101697.19;;;40.48;27.49
45403;BME280;47427;51.976;5.326;2023-05-22T10:09:15;101684.78;;;38.43;28.50
45403;BME280;47427;51.976;5.326;2023-05-22T10:12:42;101655.84;;;39.42;28.75
45403;BME280;47427;51.976;5.326;2023-05-22T10:16:05;101707.31;;;41.51;26.07
45403;BME280;47427;51.976;5.326;2023-05-22T10:19:29;101710.13;;;41.30;26.34
45403;BME280;47427;51.976;5.326;2023-05-22T10:22:55;101736.00;;;42.18;24.49
45403;BME280;47427;51.976;5.326;2023-05-22T10:26:18;101742.03;;;43.00;24.29
45403;BME280;47427;51.976;5.326;2023-05-22T10:29:49;101752.78;;;43.03;23.02
45403;BME280;47427;51.976;5.326;2023-05-22T10:33:20;101751.84;;;43.22;23.79
45403;BME280;47427;51.976;5.326;2023-05-22T10:37:21;101729.94;;;42.44;24.80
45403;BME280;47427;51.976;5.326;2023-05-22T10:40:46;101732.88;;;42.99;24.14
45403;BME280;47427;51.976;5.326;2023-05-22T10:44:08;101746.41;;;43.67;22.87
45403;BME280;47427;51.976;5.326;2023-05-22T10:47:32;101752.41;;;43.81;23.02
45403;BME280;47427;51.976;5.326;2023-05-22T10:50:55;101757.25;;;44.86;22.12
45403;BME280;47427;51.976;5.326;2023-05-22T10:54:18;101767.63;;;44.66;21.95
45403;BME280;47427;51.976;5.326;2023-05-22T10:57:56;101765.34;;;44.62;22.11
45403;BME280;47427;51.976;5.326;2023-05-22T11:01:19;101770.91;;;44.80;21.86
45403;BME280;47427;51.976;5.326;2023-05-22T11:04:46;101765.66;;;44.59;21.17
45403;BME280;47427;51.976;5.326;2023-05-22T11:12:22;101754.66;;;43.95;22.18
45403;BME280;47427;51.976;5.326;2023-05-22T11:15:45;101738.84;;;43.69;22.86
45403;BME280;47427;51.976;5.326;2023-05-22T11:19:09;101743.97;;;43.82;22.47
45403;BME280;47427;51.976;5.326;2023-05-22T11:23:00;101694.72;;;40.97;25.26
45403;BME280;47427;51.976;5.326;2023-05-22T11:26:22;101703.72;;;41.70;24.53
45403;BME280;47427;51.976;5.326;2023-05-22T11:29:46;101692.72;;;42.29;23.61
45403;BME280;47427;51.976;5.326;2023-05-22T11:33:08;101651.22;;;38.86;27.31
45403;BME280;47427;51.976;5.326;2023-05-22T11:40:36;101658.59;;;41.11;25.32
45403;BME280;47427;51.976;5.326;2023-05-22T11:44:00;101675.13;;;42.78;23.68
45403;BME280;47427;51.976;5.326;2023-05-22T11:47:25;101675.69;;;40.21;25.84
45403;BME280;47427;51.976;5.326;2023-05-22T11:50:47;101584.50;;;36.59;30.80
45403;BME280;47427;51.976;5.326;2023-05-22T11:54:10;101551.00;;;36.17;31.52
45403;BME280;47427;51.976;5.326;2023-05-22T11:57:33;101597.91;;;39.77;27.32
45403;BME280;47427;51.976;5.326;2023-05-22T12:01:02;101604.44;;;38.54;27.63
45403;BME280;47427;51.976;5.326;2023-05-22T12:04:25;101603.63;;;39.85;26.32
45403;BME280;47427;51.976;5.326;2023-05-22T12:07:47;101625.78;;;41.39;25.67
45403;BME280;47427;51.976;5.326;2023-05-22T12:11:10;101663.75;;;43.46;22.94
45403;BME280;47427;51.976;5.326;2023-05-22T12:14:34;101687.63;;;44.37;22.31
45403;BME280;47427;51.976;5.326;2023-05-22T12:17:55;101695.50;;;44.68;22.43
45403;BME280;47427;51.976;5.326;2023-05-22T12:21:19;101702.59;;;44.96;21.84
45403;BME280;47427;51.976;5.326;2023-05-22T12:24:43;101719.59;;;44.49;21.19
45403;BME280;47427;51.976;5.326;2023-05-22T12:28:08;101709.00;;;44.71;21.03
45403;BME280;47427;51.976;5.326;2023-05-22T12:31:35;101718.31;;;44.26;21.04
45403;BME280;47427;51.976;5.326;2023-05-22T12:34:57;101715.78;;;45.71;20.86
45403;BME280;47427;51.976;5.326;2023-05-22T12:38:21;101737.81;;;44.78;20.39
45403;BME280;47427;51.976;5.326;2023-05-22T12:41:44;101697.50;;;42.56;22.21
45403;BME280;47427;51.976;5.326;2023-05-22T12:45:07;101697.69;;;43.66;21.10
45403;BME280;47427;51.976;5.326;2023-05-22T12:48:30;101697.28;;;43.79;21.47
45403;BME280;47427;51.976;5.326;2023-05-22T12:51:53;101682.00;;;42.55;22.70
45403;BME280;47427;51.976;5.326;2023-05-22T12:55:15;101637.16;;;38.91;26.08
45403;BME280;47427;51.976;5.326;2023-05-22T12:58:38;101589.75;;;37.12;29.38
45403;BME280;47427;51.976;5.326;2023-05-22T13:01:59;101587.22;;;39.19;26.31
45403;BME280;47427;51.976;5.326;2023-05-22T13:05:24;101610.16;;;39.30;26.29
45403;BME280;47427;51.976;5.326;2023-05-22T13:08:47;101558.16;;;35.26;30.92
45403;BME280;47427;51.976;5.326;2023-05-22T13:12:09;101505.50;;;33.04;33.90
45403;BME280;47427;51.976;5.326;2023-05-22T13:15:32;101470.88;;;32.27;36.36
45403;BME280;47427;51.976;5.326;2023-05-22T13:18:57;101453.38;;;31.82;36.05
45403;BME280;47427;51.976;5.326;2023-05-22T13:22:18;101434.81;;;33.20;35.58
45403;BME280;47427;51.976;5.326;2023-05-22T13:25:41;101494.44;;;35.92;30.63
45403;BME280;47427;51.976;5.326;2023-05-22T13:29:02;101504.06;;;35.98;30.40
45403;BME280;47427;51.976;5.326;2023-05-22T13:32:25;101524.63;;;36.03;30.93
45403;BME280;47427;51.976;5.326;2023-05-22T13:35:48;101512.06;;;35.88;31.02
45403;BME280;47427;51.976;5.326;2023-05-22T13:39:09;101491.53;;;34.45;33.38
45403;BME280;47427;51.976;5.326;2023-05-22T13:42:32;101457.53;;;32.87;35.85
45403;BME280;47427;51.976;5.326;2023-05-22T13:45:55;101418.34;;;31.25;38.32
45403;BME280;47427;51.976;5.326;2023-05-22T13:49:17;101386.19;;;30.26;41.47
45403;BME280;47427;51.976;5.326;2023-05-22T13:52:39;101370.13;;;29.83;42.67
45403;BME280;47427;51.976;5.326;2023-05-22T13:56:02;101367.88;;;30.50;41.83
45403;BME280;47427;51.976;5.326;2023-05-22T13:59:24;101390.28;;;31.43;39.21
45403;BME280;47427;51.976;5.326;2023-05-22T14:02:47;101417.59;;;32.24;38.47
45403;BME280;47427;51.976;5.326;2023-05-22T14:06:10;101404.69;;;31.09;40.08
45403;BME280;47427;51.976;5.326;2023-05-22T14:09:33;101377.31;;;30.22;42.60
45403;BME280;47427;51.976;5.326;2023-05-22T14:12:55;101367.00;;;29.51;43.48
45403;BME280;47427;51.976;5.326;2023-05-22T14:16:17;101358.91;;;29.10;43.99
45403;BME280;47427;51.976;5.326;2023-05-22T14:19:39;101351.09;;;28.37;45.04
45403;BME280;47427;51.976;5.326;2023-05-22T14:23:02;101345.22;;;28.03;45.66
45403;BME280;47427;51.976;5.326;2023-05-22T14:26:24;101340.22;;;28.62;45.10
45403;BME280;47427;51.976;5.326;2023-05-22T14:29:46;101345.69;;;28.37;45.30
45403;BME280;47427;51.976;5.326;2023-05-22T14:33:09;101367.53;;;30.94;41.14
45403;BME280;47427;51.976;5.326;2023-05-22T14:36:32;101439.13;;;32.60;37.10
45403;BME280;47427;51.976;5.326;2023-05-22T14:39:55;101465.81;;;32.36;36.58
45403;BME280;47427;51.976;5.326;2023-05-22T14:43:16;101452.69;;;31.24;37.62
45403;BME280;47427;51.976;5.326;2023-05-22T14:47:18;101469.41;;;33.78;34.82
45403;BME280;47427;51.976;5.326;2023-05-22T14:50:41;101527.38;;;36.42;31.26
45403;BME280;47427;51.976;5.326;2023-05-22T14:54:23;101542.69;;;35.39;31.42
45403;BME280;47427;51.976;5.326;2023-05-22T14:57:46;101566.75;;;36.65;29.39
45403;BME280;47427;51.976;5.326;2023-05-22T15:01:27;101604.34;;;37.85;27.83
45403;BME280;47427;51.976;5.326;2023-05-22T15:04:48;101628.44;;;38.28;27.07
45403;BME280;47427;51.976;5.326;2023-05-22T15:08:10;101628.75;;;38.58;27.03
45403;BME280;47427;51.976;5.326;2023-05-22T15:11:33;101656.09;;;39.16;25.95
45403;BME280;47427;51.976;5.326;2023-05-22T15:14:54;101610.78;;;34.70;31.15
45403;BME280;47427;51.976;5.326;2023-05-22T15:18:17;101566.28;;;34.56;32.68
45403;BME280;47427;51.976;5.326;2023-05-22T15:21:41;101598.78;;;36.50;30.21
45403;BME280;47427;51.976;5.326;2023-05-22T15:25:04;101630.94;;;36.85;29.02
45403;BME280;47427;51.976;5.326;2023-05-22T15:28:27;101624.13;;;35.87;29.93
45403;BME280;47427;51.976;5.326;2023-05-22T15:31:50;101629.28;;;36.44;29.34
45403;BME280;47427;51.976;5.326;2023-05-22T15:35:12;101631.06;;;36.71;29.48
45403;BME280;47427;51.976;5.326;2023-05-22T15:38:37;101637.03;;;36.37;28.68
45403;BME280;47427;51.976;5.326;2023-05-22T15:41:59;101647.78;;;35.73;28.84
45403;BME280;47427;51.976;5.326;2023-05-22T15:45:21;101646.47;;;35.10;29.16
45403;BME280;47427;51.976;5.326;2023-05-22T15:49:04;101641.94;;;34.81;29.28
45403;BME280;47427;51.976;5.326;2023-05-22T15:52:27;101635.72;;;34.79;29.97
45403;BME280;47427;51.976;5.326;2023-05-22T15:55:50;101634.47;;;35.27;29.94
45403;BME280;47427;51.976;5.326;2023-05-22T15:59:11;101638.34;;;35.09;28.90
45403;BME280;47427;51.976;5.326;2023-05-22T16:02:34;101631.91;;;34.95;29.70
45403;BME280;47427;51.976;5.326;2023-05-22T16:05:57;101628.09;;;34.55;30.10
45403;BME280;47427;51.976;5.326;2023-05-22T16:09:19;101618.59;;;34.02;30.89
45403;BME280;47427;51.976;5.326;2023-05-22T16:12:41;101620.81;;;33.95;30.79
45403;BME280;47427;51.976;5.326;2023-05-22T16:16:04;101623.00;;;33.42;31.77
45403;BME280;47427;51.976;5.326;2023-05-22T16:19:26;101589.38;;;31.76;34.22
45403;BME280;47427;51.976;5.326;2023-05-22T16:22:49;101556.25;;;30.16;36.59
45403;BME280;47427;51.976;5.326;2023-05-22T16:26:10;101527.97;;;29.17;38.72
45403;BME280;47427;51.976;5.326;2023-05-22T16:29:33;101501.03;;;28.45;40.00
45403;BME280;47427;51.976;5.326;2023-05-22T16:33:16;101485.38;;;27.80;41.77
45403;BME280;47427;51.976;5.326;2023-05-22T16:36:37;101465.88;;;27.47;42.81
45403;BME280;47427;51.976;5.326;2023-05-22T16:40:00;101450.53;;;26.94;44.60
45403;BME280;47427;51.976;5.326;2023-05-22T16:43:23;101445.00;;;26.72;44.79
45403;BME280;47427;51.976;5.326;2023-05-22T16:46:44;101434.69;;;26.25;44.82
45403;BME280;47427;51.976;5.326;2023-05-22T16:50:07;101414.69;;;25.73;45.98
45403;BME280;47427;51.976;5.326;2023-05-22T16:53:29;101407.91;;;25.58;47.05
45403;BME280;47427;51.976;5.326;2023-05-22T16:56:51;101412.47;;;25.55;47.01
45403;BME280;47427;51.976;5.326;2023-05-22T17:00:14;101400.28;;;25.43;47.39
45403;BME280;47427;51.976;5.326;2023-05-22T17:03:36;101402.03;;;25.08;48.63
45403;BME280;47427;51.976;5.326;2023-05-22T17:06:59;101406.84;;;24.94;48.11
45403;BME280;47427;51.976;5.326;2023-05-22T17:10:22;101401.00;;;24.76;48.83
45403;BME280;47427;51.976;5.326;2023-05-22T17:13:43;101406.88;;;24.55;49.25
45403;BME280;47427;51.976;5.326;2023-05-22T17:17:06;101402.63;;;24.46;49.75
45403;BME280;47427;51.976;5.326;2023-05-22T17:20:27;101395.00;;;24.26;50.56
45403;BME280;47427;51.976;5.326;2023-05-22T17:24:09;101385.22;;;24.23;51.60
45403;BME280;47427;51.976;5.326;2023-05-22T17:27:33;101379.59;;;24.36;52.55
45403;BME280;47427;51.976;5.326;2023-05-22T17:30:55;101382.75;;;24.13;53.41
45403;BME280;47427;51.976;5.326;2023-05-22T17:34:17;101378.31;;;24.12;54.04
45403;BME280;47427;51.976;5.326;2023-05-22T17:37:39;101369.03;;;23.86;54.86
45403;BME280;47427;51.976;5.326;2023-05-22T17:41:02;101361.16;;;23.77;55.70
45403;BME280;47427;51.976;5.326;2023-05-22T17:44:25;101360.94;;;23.41;56.21
45403;BME280;47427;51.976;5.326;2023-05-22T17:47:47;101358.56;;;23.24;57.36
45403;BME280;47427;51.976;5.326;2023-05-22T17:51:10;101361.50;;;23.09;57.71
45403;BME280;47427;51.976;5.326;2023-05-22T17:54:34;101367.03;;;23.00;57.85
45403;BME280;47427;51.976;5.326;2023-05-22T17:57:55;101377.16;;;22.79;58.65
45403;BME280;47427;51.976;5.326;2023-05-22T18:01:18;101382.72;;;22.67;58.97
45403;BME280;47427;51.976;5.326;2023-05-22T18:04:40;101389.31;;;22.41;59.52